createdAt,value
2022-10-06T00:00:48.051Z,997.74
2022-10-06T00:01:49.093Z,997.79
2022-10-06T00:02:48.218Z,997.85
2022-10-06T00:03:48.038Z,997.84
2022-10-06T00:04:48.026Z,997.87
2022-10-06T00:05:48.098Z,997.82
2022-10-06T00:06:47.983Z,997.90
2022-10-06T00:07:47.972Z,997.91
2022-10-06T00:08:48.005Z,997.90
2022-10-06T00:09:47.983Z,997.92
2022-10-06T00:10:47.949Z,997.98
2022-10-06T00:11:47.953Z,998.00
2022-10-06T00:12:48.015Z,998.01
2022-10-06T00:13:47.962Z,998.02
2022-10-06T00:14:47.964Z,997.92
2022-10-06T00:15:47.962Z,997.91
2022-10-06T00:16:47.944Z,997.91
2022-10-06T00:17:47.988Z,997.86
2022-10-06T00:18:47.907Z,997.83
2022-10-06T00:19:47.936Z,997.86
2022-10-06T00:20:47.867Z,997.85
2022-10-06T00:21:47.871Z,997.81
2022-10-06T00:22:47.871Z,997.85
2022-10-06T00:23:47.888Z,997.84
2022-10-06T00:24:47.838Z,997.84
2022-10-06T00:25:47.865Z,997.91
2022-10-06T00:26:47.826Z,997.85
2022-10-06T00:27:47.837Z,997.86
2022-10-06T00:28:47.983Z,997.84
2022-10-06T00:29:47.847Z,997.85
2022-10-06T00:30:47.807Z,997.84
2022-10-06T00:31:47.834Z,997.95
2022-10-06T00:32:47.846Z,997.96
2022-10-06T00:33:48.859Z,997.96
2022-10-06T00:34:47.765Z,998.00
2022-10-06T00:35:47.755Z,998.05
2022-10-06T00:36:47.789Z,998.10
2022-10-06T00:37:48.735Z,998.08
2022-10-06T00:38:48.752Z,998.07
2022-10-06T00:39:47.736Z,998.01
2022-10-06T00:40:47.738Z,998.09
2022-10-06T00:41:47.748Z,998.09
2022-10-06T00:42:47.705Z,998.12
2022-10-06T00:43:47.710Z,998.16
2022-10-06T00:44:47.693Z,998.13
2022-10-06T00:45:47.822Z,998.23
2022-10-06T00:46:47.726Z,998.23
2022-10-06T00:47:47.745Z,998.29
2022-10-06T00:48:47.765Z,998.33
2022-10-06T00:49:47.648Z,998.35
2022-10-06T00:50:47.654Z,998.40
2022-10-06T00:51:47.829Z,998.41
2022-10-06T00:52:47.640Z,998.40
2022-10-06T00:53:47.623Z,998.45
2022-10-06T00:54:47.618Z,998.48
2022-10-06T00:55:47.616Z,998.44
2022-10-06T00:56:47.630Z,998.50
2022-10-06T00:57:47.605Z,998.46
2022-10-06T00:58:47.616Z,998.48
2022-10-06T00:59:47.583Z,998.51
2022-10-06T01:00:47.574Z,998.56
2022-10-06T01:01:47.587Z,998.58
2022-10-06T01:02:47.635Z,998.58
2022-10-06T01:03:47.584Z,998.56
2022-10-06T01:04:47.535Z,998.62
2022-10-06T01:05:47.511Z,998.53
2022-10-06T01:06:47.529Z,998.62
2022-10-06T01:07:47.506Z,998.60
2022-10-06T01:08:47.627Z,998.64
2022-10-06T01:09:47.630Z,998.68
2022-10-06T01:10:47.501Z,998.63
2022-10-06T01:11:47.505Z,998.65
2022-10-06T01:12:47.499Z,998.64
2022-10-06T01:13:47.560Z,998.69
2022-10-06T01:14:47.479Z,998.63
2022-10-06T01:15:47.530Z,998.74
2022-10-06T01:16:47.433Z,998.72
2022-10-06T01:17:47.501Z,998.76
2022-10-06T01:18:47.484Z,998.82
2022-10-06T01:19:47.405Z,998.92
2022-10-06T01:20:47.441Z,999.00
2022-10-06T01:21:47.416Z,999.03
2022-10-06T01:22:47.401Z,999.15
2022-10-06T01:23:47.381Z,999.16
2022-10-06T01:24:47.388Z,999.20
2022-10-06T01:25:47.402Z,999.23
2022-10-06T01:26:47.375Z,999.26
2022-10-06T01:27:47.356Z,999.26
2022-10-06T01:28:47.526Z,999.24
2022-10-06T01:29:47.335Z,999.28
2022-10-06T01:30:47.375Z,999.23
2022-10-06T01:31:47.336Z,999.26
2022-10-06T01:32:47.312Z,999.28
2022-10-06T01:33:47.311Z,999.24
2022-10-06T01:34:47.298Z,999.26
2022-10-06T01:35:47.321Z,999.32
2022-10-06T01:36:47.278Z,999.31
2022-10-06T01:37:48.388Z,999.32
2022-10-06T01:38:47.324Z,999.36
2022-10-06T01:39:47.313Z,999.48
2022-10-06T01:40:47.514Z,999.33
2022-10-06T01:41:47.289Z,999.36
2022-10-06T01:42:47.354Z,999.45
2022-10-06T01:43:47.432Z,999.42
2022-10-06T01:44:47.229Z,999.45
2022-10-06T01:45:47.252Z,999.53
2022-10-06T01:46:47.269Z,999.48
2022-10-06T01:47:47.325Z,999.51
2022-10-06T01:48:47.210Z,999.48
2022-10-06T01:49:47.201Z,999.51
2022-10-06T01:50:47.227Z,999.57
2022-10-06T01:51:47.189Z,999.58
2022-10-06T01:52:47.338Z,999.66
2022-10-06T01:53:47.193Z,999.62
2022-10-06T01:54:47.207Z,999.62
2022-10-06T01:55:47.307Z,999.69
2022-10-06T01:56:47.250Z,999.68
2022-10-06T01:57:47.218Z,999.73
2022-10-06T01:58:47.101Z,999.76
2022-10-06T01:59:52.618Z,999.72
2022-10-06T02:00:48.211Z,999.77
2022-10-06T02:01:47.108Z,999.81
2022-10-06T02:02:47.081Z,999.80
2022-10-06T02:03:47.115Z,999.67
2022-10-06T02:04:47.059Z,999.67
2022-10-06T02:05:47.075Z,999.73
2022-10-06T02:06:47.122Z,999.70
2022-10-06T02:07:47.041Z,999.78
2022-10-06T02:08:47.069Z,999.90
2022-10-06T02:09:47.073Z,999.92
2022-10-06T02:10:47.034Z,999.94
2022-10-06T02:11:47.079Z,999.96
2022-10-06T02:12:46.994Z,999.97
2022-10-06T02:13:47.028Z,999.99
2022-10-06T02:14:46.980Z,1000.11
2022-10-06T02:15:47.044Z,1000.12
2022-10-06T02:16:46.995Z,1000.08
2022-10-06T02:17:46.979Z,1000.15
2022-10-06T02:18:46.961Z,1000.19
2022-10-06T02:19:46.958Z,1000.13
2022-10-06T02:20:46.999Z,1000.22
2022-10-06T02:21:46.938Z,1000.23
2022-10-06T02:22:46.955Z,1000.30
2022-10-06T02:23:46.921Z,1000.38
2022-10-06T02:24:46.901Z,1000.52
2022-10-06T02:25:46.936Z,1000.43
2022-10-06T02:26:46.910Z,1000.59
2022-10-06T02:27:46.896Z,1000.58
2022-10-06T02:28:46.983Z,1000.69
2022-10-06T02:29:46.903Z,1000.79
2022-10-06T02:30:46.903Z,1000.73
2022-10-06T02:31:46.839Z,1000.69
2022-10-06T02:32:46.882Z,1000.70
2022-10-06T02:33:46.843Z,1000.68
2022-10-06T02:34:46.844Z,1000.71
2022-10-06T02:35:46.851Z,1000.84
2022-10-06T02:36:46.830Z,1000.90
2022-10-06T02:37:46.826Z,1000.84
2022-10-06T02:38:46.810Z,1000.84
2022-10-06T02:39:46.810Z,1000.97
2022-10-06T02:40:46.826Z,1000.92
2022-10-06T02:41:47.921Z,1000.89
2022-10-06T02:42:46.838Z,1000.88
2022-10-06T02:43:46.775Z,1000.93
2022-10-06T02:44:46.770Z,1000.94
2022-10-06T02:45:46.763Z,1001.01
2022-10-06T02:46:46.822Z,1000.98
2022-10-06T02:47:46.735Z,1000.89
2022-10-06T02:48:46.731Z,1000.88
2022-10-06T02:49:46.717Z,1000.92
2022-10-06T02:50:46.738Z,1000.94
2022-10-06T02:51:46.728Z,1000.93
2022-10-06T02:52:46.701Z,1001.01
2022-10-06T02:53:46.709Z,1001.04
2022-10-06T02:54:46.719Z,1001.02
2022-10-06T02:55:46.784Z,1001.03
2022-10-06T02:56:46.698Z,1001.07
2022-10-06T02:57:46.783Z,1001.10
2022-10-06T02:58:46.689Z,1001.03
2022-10-06T02:59:46.686Z,1001.11
2022-10-06T03:00:46.858Z,1001.02
2022-10-06T03:01:46.767Z,1000.99
2022-10-06T03:02:46.730Z,1000.98
2022-10-06T03:03:46.644Z,1001.04
2022-10-06T03:04:46.656Z,1001.13
2022-10-06T03:05:46.601Z,1001.23
2022-10-06T03:06:46.716Z,1001.21
2022-10-06T03:07:46.608Z,1001.21
2022-10-06T03:08:46.585Z,1001.23
2022-10-06T03:09:46.604Z,1001.23
2022-10-06T03:10:46.619Z,1001.16
2022-10-06T03:11:46.734Z,1001.18
2022-10-06T03:12:46.552Z,1001.18
2022-10-06T03:13:46.528Z,1001.22
2022-10-06T03:14:46.524Z,1001.29
2022-10-06T03:15:46.566Z,1001.30
2022-10-06T03:16:46.549Z,1001.39
2022-10-06T03:17:46.555Z,1001.35
2022-10-06T03:18:46.526Z,1001.24
2022-10-06T03:19:46.544Z,1001.32
2022-10-06T03:20:46.536Z,1001.31
2022-10-06T03:21:46.526Z,1001.41
2022-10-06T03:22:46.477Z,1001.35
2022-10-06T03:23:46.480Z,1001.39
2022-10-06T03:24:46.472Z,1001.36
2022-10-06T03:25:47.631Z,1001.38
2022-10-06T03:26:46.469Z,1001.36
2022-10-06T03:27:46.659Z,1001.39
2022-10-06T03:28:46.476Z,1001.37
2022-10-06T03:29:46.453Z,1001.34
2022-10-06T03:30:46.512Z,1001.37
2022-10-06T03:31:46.466Z,1001.42
2022-10-06T03:32:46.408Z,1001.56
2022-10-06T03:33:46.415Z,1001.56
2022-10-06T03:34:46.438Z,1001.50
2022-10-06T03:35:46.449Z,1001.63
2022-10-06T03:36:46.550Z,1001.64
2022-10-06T03:37:46.361Z,1001.71
2022-10-06T03:38:46.368Z,1001.73
2022-10-06T03:39:46.354Z,1001.79
2022-10-06T03:40:46.376Z,1001.78
2022-10-06T03:41:46.355Z,1001.86
2022-10-06T03:42:46.515Z,1001.80
2022-10-06T03:43:46.548Z,1001.80
2022-10-06T03:44:46.316Z,1001.82
2022-10-06T03:45:46.330Z,1001.82
2022-10-06T03:46:46.384Z,1001.83
2022-10-06T03:47:46.288Z,1001.92
2022-10-06T03:48:46.270Z,1001.91
2022-10-06T03:49:46.845Z,1001.98
2022-10-06T03:50:46.259Z,1001.94
2022-10-06T03:51:46.291Z,1001.95
2022-10-06T03:52:46.270Z,1001.92
2022-10-06T03:53:47.242Z,1001.89
2022-10-06T03:54:46.291Z,1001.89
2022-10-06T03:55:46.254Z,1001.94
2022-10-06T03:56:46.256Z,1002.01
2022-10-06T03:57:46.346Z,1002.00
2022-10-06T03:58:46.215Z,1002.02
2022-10-06T03:59:46.199Z,1002.14
2022-10-06T04:00:46.272Z,1002.06
2022-10-06T04:01:46.249Z,1002.11
2022-10-06T04:02:46.180Z,1002.12
2022-10-06T04:03:46.166Z,1002.14
2022-10-06T04:04:46.157Z,1002.21
2022-10-06T04:05:46.186Z,1002.23
2022-10-06T04:06:46.175Z,1002.22
2022-10-06T04:07:46.194Z,1002.25
2022-10-06T04:08:46.276Z,1002.26
2022-10-06T04:09:46.350Z,1002.31
2022-10-06T04:10:46.235Z,1002.32
2022-10-06T04:11:46.099Z,1002.29
2022-10-06T04:12:46.136Z,1002.35
2022-10-06T04:13:46.107Z,1002.42
2022-10-06T04:14:46.166Z,1002.45
2022-10-06T04:15:46.263Z,1002.44
2022-10-06T04:16:46.141Z,1002.43
2022-10-06T04:17:46.061Z,1002.47
2022-10-06T04:18:46.100Z,1002.54
2022-10-06T04:19:46.038Z,1002.52
2022-10-06T04:20:46.047Z,1002.63
2022-10-06T04:21:47.059Z,1002.59
2022-10-06T04:22:46.026Z,1002.58
2022-10-06T04:23:46.047Z,1002.56
2022-10-06T04:24:46.008Z,1002.63
2022-10-06T04:25:46.026Z,1002.62
2022-10-06T04:26:45.992Z,1002.63
2022-10-06T04:27:46.114Z,1002.62
2022-10-06T04:28:46.093Z,1002.66
2022-10-06T04:29:45.973Z,1002.68
2022-10-06T04:30:45.984Z,1002.71
2022-10-06T04:31:46.162Z,1002.67
2022-10-06T04:32:45.946Z,1002.69
2022-10-06T04:33:45.987Z,1002.77
2022-10-06T04:34:45.956Z,1002.76
2022-10-06T04:35:45.936Z,1002.76
2022-10-06T04:36:45.944Z,1002.79
2022-10-06T04:37:45.908Z,1002.76
2022-10-06T04:38:45.914Z,1002.80
2022-10-06T04:39:45.920Z,1002.82
2022-10-06T04:40:45.892Z,1002.83
2022-10-06T04:41:46.012Z,1002.87
2022-10-06T04:42:45.871Z,1002.87
2022-10-06T04:43:45.864Z,1002.83
2022-10-06T04:44:46.114Z,1002.85
2022-10-06T04:45:45.871Z,1002.87
2022-10-06T04:46:46.020Z,1002.94
2022-10-06T04:47:45.982Z,1002.95
2022-10-06T04:48:45.836Z,1002.97
2022-10-06T04:49:45.860Z,1002.92
2022-10-06T04:50:46.005Z,1002.96
2022-10-06T04:51:45.821Z,1002.97
2022-10-06T04:52:45.807Z,1002.98
2022-10-06T04:53:45.892Z,1002.98
2022-10-06T04:54:45.788Z,1003.01
2022-10-06T04:55:45.779Z,1003.02
2022-10-06T04:56:46.834Z,1002.99
2022-10-06T04:57:45.874Z,1003.03
2022-10-06T04:58:45.770Z,1003.03
2022-10-06T04:59:45.749Z,1002.99
2022-10-06T05:00:45.794Z,1003.05
2022-10-06T05:01:45.779Z,1003.02
2022-10-06T05:02:45.766Z,1003.09
2022-10-06T05:03:45.712Z,1003.17
2022-10-06T05:04:45.714Z,1003.18
2022-10-06T05:05:45.771Z,1003.23
2022-10-06T05:06:45.751Z,1003.27
2022-10-06T05:07:45.868Z,1003.30
2022-10-06T05:08:46.698Z,1003.29
2022-10-06T05:09:45.703Z,1003.27
2022-10-06T05:10:45.700Z,1003.32
2022-10-06T05:11:45.673Z,1003.26
2022-10-06T05:12:45.677Z,1003.32
2022-10-06T05:13:45.658Z,1003.33
2022-10-06T05:14:45.638Z,1003.35
2022-10-06T05:15:45.649Z,1003.38
2022-10-06T05:16:45.709Z,1003.40
2022-10-06T05:17:45.621Z,1003.40
2022-10-06T05:18:45.615Z,1003.51
2022-10-06T05:19:45.647Z,1003.51
2022-10-06T05:20:45.650Z,1003.51
2022-10-06T05:21:45.583Z,1003.44
2022-10-06T05:22:45.725Z,1003.50
2022-10-06T05:23:45.657Z,1003.52
2022-10-06T05:24:45.651Z,1003.54
2022-10-06T05:25:45.546Z,1003.57
2022-10-06T05:26:45.564Z,1003.56
2022-10-06T05:27:45.629Z,1003.57
2022-10-06T05:28:45.616Z,1003.57
2022-10-06T05:29:45.531Z,1003.57
2022-10-06T05:30:45.574Z,1003.58
2022-10-06T05:31:45.578Z,1003.62
2022-10-06T05:32:45.524Z,1003.59
2022-10-06T05:33:45.569Z,1003.62
2022-10-06T05:34:45.550Z,1003.62
2022-10-06T05:35:45.502Z,1003.59
2022-10-06T05:36:45.621Z,1003.66
2022-10-06T05:37:45.555Z,1003.69
2022-10-06T05:38:45.528Z,1003.65
2022-10-06T05:39:45.456Z,1003.69
2022-10-06T05:40:45.468Z,1003.73
2022-10-06T05:41:46.475Z,1003.73
2022-10-06T05:42:45.472Z,1003.70
2022-10-06T05:43:45.425Z,1003.76
2022-10-06T05:44:45.637Z,1003.70
2022-10-06T05:45:45.458Z,1003.73
2022-10-06T05:46:45.557Z,1003.83
2022-10-06T05:47:45.387Z,1003.83
2022-10-06T05:48:45.426Z,1003.89
2022-10-06T05:49:45.403Z,1003.93
2022-10-06T05:50:45.387Z,1003.93
2022-10-06T05:51:45.359Z,1003.88
2022-10-06T05:52:45.366Z,1003.90
2022-10-06T05:53:45.394Z,1003.88
2022-10-06T05:54:45.358Z,1003.95
2022-10-06T05:55:45.358Z,1004.01
2022-10-06T05:56:45.345Z,1004.02
2022-10-06T05:57:45.373Z,1004.11
2022-10-06T05:58:45.344Z,1004.05
2022-10-06T05:59:45.324Z,1004.03
2022-10-06T06:00:45.319Z,1004.09
2022-10-06T06:01:45.454Z,1004.07
2022-10-06T06:02:45.391Z,1004.09
2022-10-06T06:03:45.273Z,1004.11
2022-10-06T06:04:45.315Z,1004.11
2022-10-06T06:05:45.263Z,1004.11
2022-10-06T06:06:45.264Z,1004.13
2022-10-06T06:07:45.270Z,1004.14
2022-10-06T06:08:45.250Z,1004.14
2022-10-06T06:09:45.276Z,1004.19
2022-10-06T06:10:45.236Z,1004.20
2022-10-06T06:11:45.221Z,1004.19
2022-10-06T06:12:45.217Z,1004.29
2022-10-06T06:13:45.247Z,1004.21
2022-10-06T06:14:45.245Z,1004.23
2022-10-06T06:15:45.326Z,1004.26
2022-10-06T06:16:45.360Z,1004.29
2022-10-06T06:17:45.180Z,1004.29
2022-10-06T06:18:45.237Z,1004.36
2022-10-06T06:19:45.236Z,1004.36
2022-10-06T06:20:45.194Z,1004.41
2022-10-06T06:21:45.258Z,1004.38
2022-10-06T06:22:45.165Z,1004.41
2022-10-06T06:23:45.153Z,1004.41
2022-10-06T06:24:45.217Z,1004.49
2022-10-06T06:25:45.179Z,1004.48
2022-10-06T06:26:45.148Z,1004.47
2022-10-06T06:27:45.110Z,1004.43
2022-10-06T06:28:45.213Z,1004.49
2022-10-06T06:29:45.110Z,1004.53
2022-10-06T06:30:45.148Z,1004.48
2022-10-06T06:31:45.178Z,1004.54
2022-10-06T06:32:45.077Z,1004.54
2022-10-06T06:33:45.067Z,1004.56
2022-10-06T06:34:45.067Z,1004.59
2022-10-06T06:35:45.088Z,1004.60
2022-10-06T06:36:45.088Z,1004.63
2022-10-06T06:37:45.038Z,1004.62
2022-10-06T06:38:45.035Z,1004.76
2022-10-06T06:39:45.036Z,1004.76
2022-10-06T06:40:45.052Z,1004.72
2022-10-06T06:41:45.019Z,1004.74
2022-10-06T06:42:45.016Z,1004.70
2022-10-06T06:43:45.015Z,1004.68
2022-10-06T06:44:45.029Z,1004.72
2022-10-06T06:45:45.067Z,1004.78
2022-10-06T06:46:45.008Z,1004.84
2022-10-06T06:47:45.214Z,1004.84
2022-10-06T06:48:45.008Z,1004.94
2022-10-06T06:49:45.022Z,1004.97
2022-10-06T06:50:44.981Z,1004.91
2022-10-06T06:51:45.210Z,1004.94
2022-10-06T06:52:45.034Z,1004.96
2022-10-06T06:53:45.067Z,1005.06
2022-10-06T06:54:44.976Z,1005.13
2022-10-06T06:55:45.112Z,1005.14
2022-10-06T06:56:44.946Z,1005.12
2022-10-06T06:57:44.967Z,1005.13
2022-10-06T06:58:45.139Z,1005.09
2022-10-06T06:59:45.083Z,1005.15
2022-10-06T07:00:44.888Z,1005.03
2022-10-06T07:01:44.979Z,1005.12
2022-10-06T07:02:44.926Z,1005.15
2022-10-06T07:03:57.059Z,1005.19
2022-10-06T07:04:46.857Z,1005.20
2022-10-06T07:05:44.856Z,1005.21
2022-10-06T07:06:44.852Z,1005.21
2022-10-06T07:07:44.873Z,1005.25
2022-10-06T07:08:44.821Z,1005.22
2022-10-06T07:09:45.868Z,1005.29
2022-10-06T07:10:44.833Z,1005.24
2022-10-06T07:11:44.829Z,1005.26
2022-10-06T07:12:44.787Z,1005.27
2022-10-06T07:13:44.773Z,1005.29
2022-10-06T07:14:44.821Z,1005.30
2022-10-06T07:15:44.799Z,1005.36
2022-10-06T07:16:44.766Z,1005.35
2022-10-06T07:17:44.839Z,1005.34
2022-10-06T07:18:44.757Z,1005.37
2022-10-06T07:19:44.805Z,1005.36
2022-10-06T07:20:44.750Z,1005.35
2022-10-06T07:21:44.771Z,1005.32
2022-10-06T07:22:44.716Z,1005.35
2022-10-06T07:23:44.787Z,1005.44
2022-10-06T07:24:44.741Z,1005.46
2022-10-06T07:25:44.729Z,1005.48
2022-10-06T07:26:44.711Z,1005.45
2022-10-06T07:27:44.722Z,1005.46
2022-10-06T07:28:44.669Z,1005.45
2022-10-06T07:29:44.671Z,1005.51
2022-10-06T07:30:44.761Z,1005.47
2022-10-06T07:31:44.719Z,1005.56
2022-10-06T07:32:44.643Z,1005.57
2022-10-06T07:33:44.625Z,1005.61
2022-10-06T07:34:44.631Z,1005.61
2022-10-06T07:35:44.655Z,1005.55
2022-10-06T07:36:44.611Z,1005.63
2022-10-06T07:37:44.588Z,1005.66
2022-10-06T07:38:44.588Z,1005.68
2022-10-06T07:39:44.671Z,1005.71
2022-10-06T07:40:46.441Z,1005.74
2022-10-06T07:41:46.627Z,1005.74
2022-10-06T07:42:44.682Z,1005.66
2022-10-06T07:43:44.686Z,1005.77
2022-10-06T07:44:44.600Z,1005.80
2022-10-06T07:45:44.620Z,1005.76
2022-10-06T07:46:44.549Z,1005.77
2022-10-06T07:47:44.590Z,1005.85
2022-10-06T07:48:44.589Z,1005.82
2022-10-06T07:49:44.680Z,1005.87
2022-10-06T07:50:44.547Z,1005.92
2022-10-06T07:51:44.579Z,1005.94
2022-10-06T07:52:44.474Z,1005.91
2022-10-06T07:53:44.474Z,1005.94
2022-10-06T07:54:44.473Z,1005.90
2022-10-06T07:55:44.467Z,1005.95
2022-10-06T07:56:44.468Z,1005.97
2022-10-06T07:57:44.462Z,1005.97
2022-10-06T07:58:45.449Z,1005.88
2022-10-06T07:59:44.478Z,1005.92
2022-10-06T08:00:44.440Z,1005.95
2022-10-06T08:01:44.583Z,1006.01
2022-10-06T08:02:44.542Z,1005.97
2022-10-06T08:03:44.404Z,1005.98
2022-10-06T08:04:44.435Z,1006.02
2022-10-06T08:05:44.396Z,1006.03
2022-10-06T08:06:44.400Z,1006.06
2022-10-06T08:07:44.392Z,1006.10
2022-10-06T08:08:45.554Z,1006.10
2022-10-06T08:09:44.342Z,1006.11
2022-10-06T08:10:45.354Z,1006.10
2022-10-06T08:11:44.387Z,1006.11
2022-10-06T08:12:44.352Z,1006.14
2022-10-06T08:13:44.331Z,1006.18
2022-10-06T08:14:44.316Z,1006.15
2022-10-06T08:15:44.345Z,1006.17
2022-10-06T08:16:44.357Z,1006.21
2022-10-06T08:17:44.273Z,1006.17
2022-10-06T08:18:46.913Z,1006.20
2022-10-06T08:19:45.290Z,1006.29
2022-10-06T08:20:44.272Z,1006.28
2022-10-06T08:21:44.267Z,1006.28
2022-10-06T08:22:44.427Z,1006.31
2022-10-06T08:23:44.488Z,1006.33
2022-10-06T08:25:04.742Z,1006.33
2022-10-06T08:25:46.248Z,1006.37
2022-10-06T08:26:44.327Z,1006.35
2022-10-06T08:27:44.322Z,1006.38
2022-10-06T08:28:44.357Z,1006.39
2022-10-06T08:29:44.274Z,1006.40
2022-10-06T08:30:44.216Z,1006.40
2022-10-06T08:31:44.247Z,1006.39
2022-10-06T08:32:44.194Z,1006.36
2022-10-06T08:33:44.205Z,1006.41
2022-10-06T08:34:44.165Z,1006.40
2022-10-06T08:35:44.203Z,1006.39
2022-10-06T08:37:02.211Z,1006.39
2022-10-06T08:37:46.143Z,1006.40
2022-10-06T08:38:44.170Z,1006.46
2022-10-06T08:39:44.265Z,1006.52
2022-10-06T08:40:44.157Z,1006.47
2022-10-06T08:41:44.152Z,1006.49
2022-10-06T08:42:44.106Z,1006.45
2022-10-06T08:43:44.087Z,1006.48
2022-10-06T08:44:44.179Z,1006.48
2022-10-06T08:45:44.134Z,1006.55
2022-10-06T08:46:44.154Z,1006.52
2022-10-06T08:47:44.091Z,1006.51
2022-10-06T08:48:44.082Z,1006.53
2022-10-06T08:49:44.087Z,1006.56
2022-10-06T08:50:44.145Z,1006.59
2022-10-06T08:51:44.093Z,1006.61
2022-10-06T08:52:44.092Z,1006.68
2022-10-06T08:53:44.072Z,1006.70
2022-10-06T08:54:44.027Z,1006.74
2022-10-06T08:55:44.014Z,1006.74
2022-10-06T08:56:44.089Z,1006.73
2022-10-06T08:57:44.072Z,1006.78
2022-10-06T08:58:43.983Z,1006.78
2022-10-06T08:59:44.026Z,1006.70
2022-10-06T09:00:44.121Z,1006.72
2022-10-06T09:01:44.124Z,1006.71
2022-10-06T09:02:44.065Z,1006.70
2022-10-06T09:03:43.977Z,1006.72
2022-10-06T09:04:43.969Z,1006.70
2022-10-06T09:05:43.980Z,1006.73
2022-10-06T09:06:44.077Z,1006.74
2022-10-06T09:07:43.970Z,1006.76
2022-10-06T09:08:43.940Z,1006.71
2022-10-06T09:09:44.220Z,1006.74
2022-10-06T09:10:44.098Z,1006.77
2022-10-06T09:11:43.937Z,1006.76
2022-10-06T09:12:43.942Z,1006.77
2022-10-06T09:13:43.907Z,1006.75
2022-10-06T09:14:43.903Z,1006.78
2022-10-06T09:15:43.986Z,1006.89
2022-10-06T09:16:43.903Z,1006.87
2022-10-06T09:17:43.888Z,1006.85
2022-10-06T09:19:06.807Z,1006.89
2022-10-06T09:19:45.858Z,1006.92
2022-10-06T09:20:43.868Z,1006.92
2022-10-06T09:21:43.847Z,1006.98
2022-10-06T09:22:43.842Z,1006.96
2022-10-06T09:23:44.027Z,1006.97
2022-10-06T09:24:47.415Z,1006.99
2022-10-06T09:25:44.825Z,1006.95
2022-10-06T09:26:43.848Z,1006.94
2022-10-06T09:27:43.809Z,1006.98
2022-10-06T09:28:43.940Z,1007.00
2022-10-06T09:29:43.801Z,1007.08
2022-10-06T09:30:43.787Z,1007.03
2022-10-06T09:31:43.834Z,1006.98
2022-10-06T09:32:43.767Z,1007.02
2022-10-06T09:33:43.789Z,1007.00
2022-10-06T09:34:43.753Z,1006.95
2022-10-06T09:35:43.745Z,1007.02
2022-10-06T09:36:43.844Z,1007.02
2022-10-06T09:37:43.760Z,1007.02
2022-10-06T09:38:43.766Z,1007.06
2022-10-06T09:39:43.742Z,1007.02
2022-10-06T09:40:43.728Z,1007.06
2022-10-06T09:41:43.745Z,1007.04
2022-10-06T09:42:43.725Z,1007.02
2022-10-06T09:43:43.695Z,1007.03
2022-10-06T09:44:43.729Z,1007.02
2022-10-06T09:45:43.687Z,1007.08
2022-10-06T09:46:43.768Z,1007.05
2022-10-06T09:47:43.711Z,1007.10
2022-10-06T09:48:43.665Z,1007.09
2022-10-06T09:49:43.667Z,1007.12
2022-10-06T09:50:43.686Z,1007.12
2022-10-06T09:51:43.686Z,1007.13
2022-10-06T09:52:43.675Z,1007.09
2022-10-06T09:53:43.672Z,1007.15
2022-10-06T09:54:43.641Z,1007.13
2022-10-06T09:55:43.623Z,1007.10
2022-10-06T09:56:43.669Z,1007.11
2022-10-06T09:57:43.617Z,1007.16
2022-10-06T09:58:43.632Z,1007.10
2022-10-06T09:59:43.610Z,1007.11
2022-10-06T10:00:43.654Z,1007.02
2022-10-06T10:01:43.630Z,1007.09
2022-10-06T10:02:43.725Z,1007.04
2022-10-06T10:03:51.511Z,1007.08
2022-10-06T10:04:50.783Z,1007.13
2022-10-06T10:05:44.560Z,1007.17
2022-10-06T10:06:43.583Z,1007.18
2022-10-06T10:07:43.554Z,1007.16
2022-10-06T10:08:43.592Z,1007.18
2022-10-06T10:09:43.575Z,1007.12
2022-10-06T10:10:43.551Z,1007.16
2022-10-06T10:11:43.542Z,1007.13
2022-10-06T10:12:43.579Z,1007.17
2022-10-06T10:13:43.573Z,1007.16
2022-10-06T10:14:43.519Z,1007.20
2022-10-06T10:15:43.598Z,1007.20
2022-10-06T10:16:43.513Z,1007.14
2022-10-06T10:17:43.554Z,1007.22
2022-10-06T10:18:43.541Z,1007.15
2022-10-06T10:19:43.502Z,1007.14
2022-10-06T10:20:43.479Z,1007.10
2022-10-06T10:21:43.469Z,1007.20
2022-10-06T10:22:43.489Z,1007.08
2022-10-06T10:23:43.498Z,1007.09
2022-10-06T10:24:43.472Z,1007.10
2022-10-06T10:25:43.460Z,1007.16
2022-10-06T10:26:43.441Z,1007.16
2022-10-06T10:27:43.481Z,1007.13
2022-10-06T10:28:43.591Z,1007.10
2022-10-06T10:29:43.432Z,1007.10
2022-10-06T10:30:43.436Z,1007.12
2022-10-06T10:31:43.548Z,1007.17
2022-10-06T10:32:43.415Z,1007.14
2022-10-06T10:33:49.809Z,1007.09
2022-10-06T10:34:44.428Z,1007.09
2022-10-06T10:35:43.391Z,1007.09
2022-10-06T10:36:43.406Z,1007.10
2022-10-06T10:37:43.388Z,1007.06
2022-10-06T10:38:43.432Z,1007.14
2022-10-06T10:39:43.400Z,1007.13
2022-10-06T10:40:43.398Z,1007.18
2022-10-06T10:41:43.390Z,1007.21
2022-10-06T10:42:43.375Z,1007.14
2022-10-06T10:43:43.397Z,1007.26
2022-10-06T10:44:43.373Z,1007.12
2022-10-06T10:45:43.359Z,1007.19
2022-10-06T10:46:43.426Z,1007.15
2022-10-06T10:47:43.315Z,1007.25
2022-10-06T10:48:43.341Z,1007.24
2022-10-06T10:49:43.329Z,1007.30
2022-10-06T10:50:43.300Z,1007.23
2022-10-06T10:51:43.333Z,1007.21
2022-10-06T10:52:43.306Z,1007.20
2022-10-06T10:53:43.296Z,1007.22
2022-10-06T10:54:43.314Z,1007.20
2022-10-06T10:55:43.264Z,1007.22
2022-10-06T10:56:43.291Z,1007.27
2022-10-06T10:57:43.266Z,1007.23
2022-10-06T10:58:43.302Z,1007.25
2022-10-06T10:59:43.248Z,1007.19
2022-10-06T11:00:43.286Z,1007.19
2022-10-06T11:01:43.278Z,1007.13
2022-10-06T11:02:43.316Z,1007.20
2022-10-06T11:03:43.204Z,1007.19
2022-10-06T11:04:43.239Z,1007.21
2022-10-06T11:05:43.200Z,1007.25
2022-10-06T11:06:43.248Z,1007.20
2022-10-06T11:07:43.207Z,1007.15
2022-10-06T11:08:43.201Z,1007.23
2022-10-06T11:09:43.213Z,1007.20
2022-10-06T11:10:43.175Z,1007.21
2022-10-06T11:11:43.198Z,1007.24
2022-10-06T11:12:43.178Z,1007.27
2022-10-06T11:13:43.206Z,1007.18
2022-10-06T11:14:43.155Z,1007.20
2022-10-06T11:15:43.155Z,1007.22
2022-10-06T11:16:43.183Z,1007.21
2022-10-06T11:17:43.153Z,1007.22
2022-10-06T11:18:43.132Z,1007.21
2022-10-06T11:19:43.123Z,1007.19
2022-10-06T11:20:43.139Z,1007.19
2022-10-06T11:21:43.131Z,1007.19
2022-10-06T11:22:43.143Z,1007.26
2022-10-06T11:23:43.094Z,1007.20
2022-10-06T11:24:43.118Z,1007.16
2022-10-06T11:25:43.084Z,1007.29
2022-10-06T11:26:43.091Z,1007.20
2022-10-06T11:27:43.092Z,1007.17
2022-10-06T11:28:43.122Z,1007.21
2022-10-06T11:29:43.054Z,1007.16
2022-10-06T11:30:43.045Z,1007.23
2022-10-06T11:31:43.132Z,1007.17
2022-10-06T11:32:43.083Z,1007.21
2022-10-06T11:33:43.105Z,1007.07
2022-10-06T11:34:43.044Z,1007.09
2022-10-06T11:35:43.044Z,1007.10
2022-10-06T11:36:43.038Z,1007.19
2022-10-06T11:37:43.019Z,1007.18
2022-10-06T11:38:43.036Z,1007.06
2022-10-06T11:39:42.997Z,1007.13
2022-10-06T11:40:43.022Z,1007.21
2022-10-06T11:41:42.973Z,1007.14
2022-10-06T11:42:42.995Z,1007.12
2022-10-06T11:43:42.963Z,1007.15
2022-10-06T11:44:42.965Z,1007.14
2022-10-06T11:45:43.048Z,1007.11
2022-10-06T11:46:45.111Z,1007.12
2022-10-06T11:47:43.926Z,1007.13
2022-10-06T11:48:42.964Z,1007.11
2022-10-06T11:49:42.938Z,1007.13
2022-10-06T11:50:42.922Z,1007.10
2022-10-06T11:51:42.962Z,1007.09
2022-10-06T11:52:42.936Z,1007.15
2022-10-06T11:53:42.897Z,1007.10
2022-10-06T11:54:42.892Z,1007.14
2022-10-06T11:55:42.915Z,1007.07
2022-10-06T11:56:42.918Z,1007.09
2022-10-06T11:57:42.874Z,1007.10
2022-10-06T11:58:43.019Z,1007.05
2022-10-06T11:59:42.854Z,1007.04
2022-10-06T12:00:42.875Z,1007.15
2022-10-06T12:01:42.886Z,1007.14
2022-10-06T12:02:42.977Z,1007.09
2022-10-06T12:03:42.952Z,1007.10
2022-10-06T12:04:42.821Z,1007.01
2022-10-06T12:05:56.329Z,1007.08
2022-10-06T12:06:44.811Z,1007.06
2022-10-06T12:07:42.812Z,1006.97
2022-10-06T12:08:42.827Z,1007.00
2022-10-06T12:09:44.692Z,1007.05